Acton, CA

6:33 PM PDT on September 02, 2014 (GMT -0700)
Gen Fox | Change Station
CLOSE
Current Station
Airport
Location: Lancaster,
Elevation: 2346 ft
Nearby Weather Stations

Elev 2346 ft 34.74 °N, 118.22 °W | Updated 37 minutes ago

Clear
Clear
89 °F
Feels Like 89 °F
N
21
Wind Variable Wind from WSW
Gusts 28 mph

Today
High -- | Low -- °F
--% Chance of Precip.
Yesterday
High -- | Low -- °F
Precip. -- in
6:26 AM 7:17 PM
First Quarter, 57% visible
Pressure 29.74 in
Visibility 10.0 miles
Clouds Clear
Dew Point 37 °F
Humidity 16%
Rainfall 0.00 in
Snow Depth Not available.
UV 1 out of 12
Pollen 7.00 out of 12
Ozone Moderate
PM2.5 Moderate
Flu Activity Not available.
METAR KWJF 030056Z AUTO 24018G24KT 10SM CLR 32/03 A2979 RMK AO2 PK WND 25026/0046 SLP070 T03170028 TSNO

More Conditions Fewer Conditions

Pressure 29.74 in
Visibility 10.0 miles
Clouds Clear
Dew Point 37 °F
Humidity 16%
Rainfall 0.00 in
Snow Depth Not available.
UV 1 out of 12
Pollen 7.00 out of 12
Ozone Moderate
PM2.5 Moderate
Flu Activity Not available.
METAR KWJF 030056Z AUTO 24018G24KT 10SM CLR 32/03 A2979 RMK AO2 PK WND 25026/0046 SLP070 T03170028 TSNO

More Conditions Fewer Conditions

10-Day Weather Forecast

Almanac

Astronomy

Sep. 02, 2014 Rise Set
Actual Time 6:26 AM PDT 7:17 PM PDT
Civil Twilight 6:01 AM PDT 7:43 PM PDT
Nautical Twilight 5:30 AM PDT 8:13 PM PDT
Astronomical Twilight 4:59 AM PDT 8:44 PM PDT
Moon 1:57 PM PDT (9/2) No Moon Set
Length of Visible Light 13h 42m
Length of Day
12h 50m
Tomorrow will be 2m 4s shorter.
First Quarter, 57% of the Moon is Illuminated
Today
First Quarter
Sep 8
Full
Sep 15
Last Quarter
Sep 24
New
Oct 1
First Quarter

Today's Extremes

State Highs State Lows

Community

WunderPhotos

Upload Photos

1,749,829 photos uploaded!

Nearby

Air Quality

  Air Quality AQ Index Pollutant
Yesterday Unhealthy for Sensitive Groups
OZONE
Yesterday Good
PM10
Current Moderate
OZONE
Current Moderate
PM2.5
Wednesday Good
PM10
Wednesday Moderate
OZONE
Wednesday Good
CO
Wednesday Good
NO2

Snow Depth

Station Depth Elevation
Summit Meadow 0 in 9122 ft
Adin Mountain 0 in 6200 ft

Earthquake Activity

City Distance Mag. Time & Date
No recent earthquake activity has been reported nearby.
Minimum magnitude displayed is 2.5.

Coastal Water Temperatures

Place Temperature
No Stations Reporting

Nearby Weather Stations